createdAt,value
2017-06-23T14:16:36.671Z,1014.73
2017-06-23T14:17:59.246Z,1014.75
2017-06-23T14:19:20.878Z,1014.7
2017-06-23T14:20:42.771Z,1014.69
2017-06-23T14:22:05.486Z,1014.73
2017-06-23T14:23:28.002Z,1014.71
2017-06-23T14:24:49.539Z,1014.68
2017-06-23T14:26:11.696Z,1014.71
2017-06-23T14:27:33.906Z,1014.71
2017-06-23T14:28:56.133Z,1014.63
2017-06-23T14:30:18.294Z,1014.69
2017-06-23T14:31:40.893Z,1014.76
2017-06-23T14:33:03.477Z,1014.68
2017-06-23T14:34:25.964Z,1014.73
2017-06-23T14:35:48.149Z,1014.7
2017-06-23T14:37:10.312Z,1014.68
2017-06-23T14:38:32.771Z,1014.65
2017-06-23T14:39:54.956Z,1014.65
2017-06-23T14:41:16.494Z,1014.68
2017-06-23T14:42:38.630Z,1014.73
2017-06-23T14:44:00.823Z,1014.7
2017-06-23T14:45:22.977Z,1014.67
2017-06-23T14:46:45.237Z,1014.64
2017-06-23T14:48:07.072Z,1014.68
2017-06-23T14:49:29.892Z,1014.7
2017-06-23T14:50:51.743Z,1014.81
2017-06-23T14:52:13.749Z,1014.74
2017-06-23T14:53:35.571Z,1014.7
2017-06-23T14:54:58.496Z,1014.69
2017-06-23T14:56:20.404Z,1014.62
2017-06-23T14:57:42.391Z,1014.66
2017-06-23T14:59:04.853Z,1014.66
2017-06-23T15:00:27.449Z,1014.66
2017-06-23T15:01:49.827Z,1014.66
2017-06-23T15:03:12.446Z,1014.65
2017-06-23T15:04:34.920Z,1014.58
2017-06-23T15:05:57.687Z,1014.59
2017-06-23T15:07:20.167Z,1014.59
2017-06-23T15:08:42.386Z,1014.56
2017-06-23T15:10:04.433Z,1014.57
2017-06-23T15:11:26.562Z,1014.63
2017-06-23T15:12:49.048Z,1014.55
2017-06-23T15:14:11.654Z,1014.59
2017-06-23T15:15:34.132Z,1014.63
2017-06-23T15:16:56.872Z,1014.6
2017-06-23T15:18:18.722Z,1014.64
2017-06-23T15:19:41.261Z,1014.71
2017-06-23T15:21:03.416Z,1014.72
2017-06-23T15:22:26.283Z,1014.72
2017-06-23T15:23:48.127Z,1014.74
2017-06-23T15:25:10.272Z,1014.72
2017-06-23T15:26:32.479Z,1014.72
2017-06-23T15:27:55.434Z,1014.77
2017-06-23T15:29:17.362Z,1014.82
2017-06-23T15:30:39.539Z,1014.8
2017-06-23T15:32:01.756Z,1014.9
2017-06-23T15:33:24.211Z,1014.9
2017-06-23T15:34:45.711Z,1014.87
2017-06-23T15:36:07.547Z,1014.97
2017-06-23T15:37:29.693Z,1015.02
2017-06-23T15:38:52.508Z,1014.96
2017-06-23T15:40:15.035Z,1015.01
2017-06-23T15:41:36.929Z,1015.1
2017-06-23T15:42:58.478Z,1015.08
2017-06-23T15:44:21.112Z,1015.02
2017-06-23T15:45:43.047Z,1015.11
2017-06-23T15:47:05.209Z,1015.11
2017-06-23T15:48:27.073Z,1015.08
2017-06-23T15:49:49.523Z,1015.01
2017-06-23T15:51:11.690Z,1014.91
2017-06-23T15:52:33.881Z,1014.88
2017-06-23T15:53:56.434Z,1014.9
2017-06-23T15:55:19.242Z,1014.83
2017-06-23T15:56:41.782Z,1014.91
2017-06-23T15:58:03.647Z,1014.85
2017-06-23T15:59:25.861Z,1014.81
2017-06-23T16:00:47.602Z,1014.85
2017-06-23T16:02:09.773Z,1014.91
2017-06-23T16:03:32.231Z,1014.92
2017-06-23T16:04:54.441Z,1014.89
2017-06-23T16:06:16.665Z,1014.9
2017-06-23T16:07:38.505Z,1014.91
2017-06-23T16:09:00.713Z,1014.8
2017-06-23T16:10:22.885Z,1014.93
2017-06-23T16:11:45.288Z,1014.95
2017-06-23T16:13:07.130Z,1014.9
2017-06-23T16:14:28.642Z,1014.92
2017-06-23T16:15:51.101Z,1014.93
2017-06-23T16:17:13.874Z,1014.87
2017-06-23T16:18:35.819Z,1014.9
2017-06-23T16:19:58.353Z,1014.87
2017-06-23T16:21:20.190Z,1014.82
2017-06-23T16:22:43.027Z,1014.83
2017-06-23T16:24:05.214Z,1014.88
2017-06-23T16:25:27.672Z,1014.9
2017-06-23T16:26:50.153Z,1014.84
2017-06-23T16:28:12.958Z,1014.87
2017-06-23T16:29:35.484Z,1014.85
2017-06-23T16:30:57.952Z,1014.79
2017-06-23T16:32:20.123Z,1014.78
2017-06-23T16:33:42.984Z,1014.75
2017-06-23T16:35:05.436Z,1014.76
2017-06-23T16:36:27.682Z,1014.74
2017-06-23T16:37:50.182Z,1014.68
2017-06-23T16:39:12.434Z,1014.61
2017-06-23T16:40:34.918Z,1014.67
2017-06-23T16:41:57.503Z,1014.77
2017-06-23T16:43:19.956Z,1014.79
2017-06-23T16:44:42.773Z,1014.81
2017-06-23T16:46:04.965Z,1014.76
2017-06-23T16:47:27.430Z,1014.78
2017-06-23T16:48:49.325Z,1014.84
2017-06-23T16:50:11.708Z,1014.79
2017-06-23T16:51:33.555Z,1014.8
2017-06-23T16:52:55.078Z,1014.72
2017-06-23T16:54:16.904Z,1014.74
2017-06-23T16:55:39.052Z,1014.78
2017-06-23T16:57:01.277Z,1014.72
2017-06-23T16:58:23.433Z,1014.74
2017-06-23T16:59:45.996Z,1014.75
2017-06-23T17:01:08.221Z,1014.71
2017-06-23T17:02:30.779Z,1014.69
2017-06-23T17:03:52.383Z,1014.71
2017-06-23T17:05:14.542Z,1014.72
2017-06-23T17:06:36.739Z,1014.73
2017-06-23T17:07:58.869Z,1014.75
2017-06-23T17:09:21.376Z,1014.69
2017-06-23T17:10:43.536Z,1014.67
2017-06-23T17:12:25.235Z,1014.69
2017-06-23T17:13:47.372Z,1014.7
2017-06-23T17:15:09.524Z,1014.67
2017-06-23T17:16:31.424Z,1014.69
2017-06-23T17:17:53.926Z,1014.72
2017-06-23T17:19:16.149Z,1014.69
2017-06-23T17:20:38.619Z,1014.7
2017-06-23T17:22:00.880Z,1014.72
2017-06-23T17:23:23.692Z,1014.77
2017-06-23T17:24:45.836Z,1014.79
2017-06-23T17:26:07.733Z,1014.78
2017-06-23T17:27:29.587Z,1014.79
2017-06-23T17:28:52.093Z,1014.75
2017-06-23T17:30:14.237Z,1014.74
2017-06-23T17:31:36.384Z,1014.77
2017-06-23T17:32:58.514Z,1014.81
2017-06-23T17:34:21.219Z,1014.85
2017-06-23T17:35:43.366Z,1014.88
2017-06-23T17:37:05.868Z,1014.88
2017-06-23T17:38:27.696Z,1014.89
2017-06-23T17:39:50.284Z,1014.87
2017-06-23T17:41:12.223Z,1014.9
2017-06-23T17:42:34.710Z,1014.88
2017-06-23T17:43:56.536Z,1014.88
2017-06-23T17:45:18.512Z,1014.91
2017-06-23T17:46:40.355Z,1014.91
2017-06-23T17:48:02.545Z,1014.93
2017-06-23T17:49:25.001Z,1014.96
2017-06-23T17:50:47.818Z,1015
2017-06-23T17:52:09.969Z,1015.02
2017-06-23T17:53:32.483Z,1015.06
2017-06-23T17:54:54.949Z,1015.1
2017-06-23T17:56:16.706Z,1015.06
2017-06-23T17:57:39.213Z,1015.01
2017-06-23T17:59:01.676Z,1015.01
2017-06-23T18:00:23.836Z,1015.05
2017-06-23T18:01:45.321Z,1015.07
2017-06-23T18:03:07.496Z,1015.12
2017-06-23T18:04:29.474Z,1015.13
2017-06-23T18:05:51.833Z,1015.2
2017-06-23T18:07:14.676Z,1015.15
2017-06-23T18:08:37.156Z,1015.22
2017-06-23T18:09:59.314Z,1015.23
2017-06-23T18:11:21.522Z,1015.2
2017-06-23T18:12:44.311Z,1015.24
2017-06-23T18:14:06.187Z,1015.21
2017-06-23T18:15:28.486Z,1015.23
2017-06-23T18:16:50.980Z,1015.23
2017-06-23T18:18:12.957Z,1015.25
2017-06-23T18:19:35.492Z,1015.27
2017-06-23T18:20:57.331Z,1015.31
2017-06-23T18:22:19.524Z,1015.38
2017-06-23T18:23:41.713Z,1015.38
2017-06-23T18:25:03.245Z,1015.42
2017-06-23T18:26:25.150Z,1015.37
2017-06-23T18:27:47.324Z,1015.35
2017-06-23T18:29:09.483Z,1015.4
2017-06-23T18:30:31.662Z,1015.46
2017-06-23T18:31:53.836Z,1015.56
2017-06-23T18:33:16.211Z,1015.54
2017-06-23T18:34:38.675Z,1015.49
2017-06-23T18:36:01.169Z,1015.52
2017-06-23T18:37:23.778Z,1015.52
2017-06-23T18:38:45.677Z,1015.55
2017-06-23T18:40:08.628Z,1015.6
2017-06-23T18:41:30.909Z,1015.67
2017-06-23T18:42:52.754Z,1015.69
2017-06-23T18:44:15.249Z,1015.7
2017-06-23T18:45:37.792Z,1015.67
2017-06-23T18:46:59.987Z,1015.68
2017-06-23T18:48:21.965Z,1015.66
2017-06-23T18:49:44.459Z,1015.69
2017-06-23T18:51:07.365Z,1015.74
2017-06-23T18:52:29.843Z,1015.8
2017-06-23T18:53:52.349Z,1015.8
2017-06-23T18:55:14.543Z,1015.8
2017-06-23T18:56:37.386Z,1015.8
2017-06-23T18:57:59.622Z,1015.81
2017-06-23T18:59:22.101Z,1015.84
2017-06-23T19:00:44.599Z,1015.74
2017-06-23T19:02:07.120Z,1015.84
2017-06-23T19:03:29.624Z,1015.91
2017-06-23T19:04:51.806Z,1015.92
2017-06-23T19:06:14.024Z,1015.89
2017-06-23T19:07:35.917Z,1015.86
2017-06-23T19:08:58.489Z,1015.84
2017-06-23T19:10:20.993Z,1015.87
2017-06-23T19:11:42.864Z,1015.93
2017-06-23T19:13:05.494Z,1015.97
2017-06-23T19:14:28.042Z,1015.97
2017-06-23T19:15:50.556Z,1015.92
2017-06-23T19:17:12.771Z,1015.94
2017-06-23T19:18:35.635Z,1015.9
2017-06-23T19:19:58.128Z,1015.87
2017-06-23T19:21:20.623Z,1015.87
2017-06-23T19:22:42.837Z,1015.8
2017-06-23T19:24:05.557Z,1015.79
2017-06-23T19:25:27.776Z,1015.75
2017-06-23T19:26:49.704Z,1015.74
2017-06-23T19:28:12.309Z,1015.74
2017-06-23T19:29:35.296Z,1015.85
2017-06-23T19:30:57.490Z,1015.84
2017-06-23T19:32:20.096Z,1015.84
2017-06-23T19:33:42.278Z,1015.83
2017-06-23T19:35:04.798Z,1015.9
2017-06-23T19:36:27.298Z,1015.98
2017-06-23T19:37:49.794Z,1015.91
2017-06-23T19:39:12.046Z,1015.87
2017-06-23T19:40:34.783Z,1015.92
2017-06-23T19:41:57.301Z,1015.87
2017-06-23T19:43:19.457Z,1015.99
2017-06-23T19:44:42.043Z,1016.02
2017-06-23T19:46:04.274Z,1015.99
2017-06-23T19:47:26.786Z,1015.96
2017-06-23T19:48:49.318Z,1015.94
2017-06-23T19:50:11.543Z,1015.85
2017-06-23T19:51:34.266Z,1015.91
2017-06-23T19:52:56.358Z,1015.92
2017-06-23T19:54:18.867Z,1015.91
2017-06-23T19:55:41.049Z,1015.96
2017-06-23T19:57:03.950Z,1016.03
2017-06-23T19:58:25.903Z,1016
2017-06-23T19:59:48.061Z,1016.03
2017-06-23T20:01:10.643Z,1016.07
2017-06-23T20:02:33.100Z,1016.09
2017-06-23T20:03:55.414Z,1016.08
2017-06-23T20:05:17.598Z,1016.05
2017-06-23T20:06:39.217Z,1016.07
2017-06-23T20:08:01.713Z,1016.05
2017-06-23T20:09:24.214Z,1016.09
2017-06-23T20:10:46.712Z,1016.06
2017-06-23T20:12:09.196Z,1016.12
2017-06-23T20:13:31.706Z,1016.03
2017-06-23T20:14:54.215Z,1016.04
2017-06-23T20:16:16.426Z,1016.07
2017-06-23T20:17:39.058Z,1016.04
2017-06-23T20:19:01.797Z,1016.03
2017-06-23T20:20:23.978Z,1016.04
2017-06-23T20:21:46.163Z,1016.03
2017-06-23T20:23:08.335Z,1016.05
2017-06-23T20:24:30.236Z,1016.01
2017-06-23T20:25:52.757Z,1015.92
2017-06-23T20:27:15.429Z,1015.9
2017-06-23T20:28:37.897Z,1015.92
2017-06-23T20:30:00.599Z,1015.91
2017-06-23T20:31:22.206Z,1015.98
2017-06-23T20:32:44.046Z,1015.9
2017-06-23T20:34:06.238Z,1015.9
2017-06-23T20:35:28.346Z,1015.84
2017-06-23T20:36:50.505Z,1015.89
2017-06-23T20:38:12.977Z,1015.88
2017-06-23T20:39:35.234Z,1015.92
2017-06-23T20:40:57.423Z,1015.89
2017-06-23T20:42:19.630Z,1015.9
2017-06-23T20:43:41.874Z,1015.9
2017-06-23T20:45:04.381Z,1015.92
2017-06-23T20:46:26.996Z,1015.96
2017-06-23T20:47:48.535Z,1015.93
2017-06-23T20:49:11.149Z,1015.88
2017-06-23T20:50:33.298Z,1015.86
2017-06-23T20:51:55.476Z,1015.79
2017-06-23T20:53:17.944Z,1015.79
2017-06-23T20:54:39.538Z,1015.76
2017-06-23T20:56:01.732Z,1015.77
2017-06-23T20:57:24.157Z,1015.82
2017-06-23T20:58:46.306Z,1015.86
2017-06-23T21:00:08.838Z,1015.84
2017-06-23T21:01:31.311Z,1015.81
2017-06-23T21:02:53.146Z,1015.83
2017-06-23T21:04:15.626Z,1015.79
2017-06-23T21:05:38.198Z,1015.81
2017-06-23T21:07:00.355Z,1015.74
2017-06-23T21:08:22.593Z,1015.77
2017-06-23T21:09:44.503Z,1015.77
2017-06-23T21:11:06.960Z,1015.72
2017-06-23T21:12:29.125Z,1015.75
2017-06-23T21:13:51.842Z,1015.8
2017-06-23T21:15:13.503Z,1015.74
2017-06-23T21:16:35.682Z,1015.82
2017-06-23T21:17:57.860Z,1015.86
2017-06-23T21:19:20.582Z,1015.83
2017-06-23T21:20:42.727Z,1015.84
2017-06-23T21:22:05.446Z,1015.9
2017-06-23T21:23:27.308Z,1015.85
2017-06-23T21:24:50.133Z,1015.89
2017-06-23T21:26:12.495Z,1015.87
2017-06-23T21:27:35.065Z,1015.88
2017-06-23T21:28:57.205Z,1015.83
2017-06-23T21:30:19.721Z,1015.79
2017-06-23T21:31:41.907Z,1015.78
2017-06-23T21:33:04.376Z,1015.77
2017-06-23T21:34:26.543Z,1015.78
2017-06-23T21:35:49.059Z,1015.73
2017-06-23T21:37:10.653Z,1015.71
2017-06-23T21:38:32.817Z,1015.69
2017-06-23T21:39:54.739Z,1015.75
2017-06-23T21:41:17.474Z,1015.77
2017-06-23T21:42:39.645Z,1015.78
2017-06-23T21:44:02.192Z,1015.8
2017-06-23T21:45:24.051Z,1015.78
2017-06-23T21:46:46.782Z,1015.73
2017-06-23T21:48:09.255Z,1015.76
2017-06-23T21:49:31.704Z,1015.79
2017-06-23T21:50:53.851Z,1015.81
2017-06-23T21:52:16.558Z,1015.8
2017-06-23T21:53:38.994Z,1015.77
2017-06-23T21:55:01.116Z,1015.75
2017-06-23T21:56:22.682Z,1015.71
2017-06-23T21:57:45.426Z,1015.74
2017-06-23T21:59:06.987Z,1015.68
2017-06-23T22:00:29.243Z,1015.69
2017-06-23T22:01:51.714Z,1015.66
2017-06-23T22:03:14.114Z,1015.7
2017-06-23T22:04:36.285Z,1015.73
2017-06-23T22:05:58.425Z,1015.78
2017-06-23T22:07:20.586Z,1015.75
2017-06-23T22:08:43.345Z,1015.79
2017-06-23T22:10:05.834Z,1015.74
2017-06-23T22:11:28.071Z,1015.74
2017-06-23T22:12:50.049Z,1015.76
2017-06-23T22:14:12.431Z,1015.76
2017-06-23T22:15:34.264Z,1015.68
2017-06-23T22:16:56.742Z,1015.7
2017-06-23T22:18:18.246Z,1015.71
2017-06-23T22:19:40.355Z,1015.72
2017-06-23T22:21:02.652Z,1015.7
2017-06-23T22:22:24.594Z,1015.67
2017-06-23T22:23:46.803Z,1015.69
2017-06-23T22:25:09.365Z,1015.67
2017-06-23T22:26:31.526Z,1015.67
2017-06-23T22:27:53.679Z,1015.69
2017-06-23T22:29:15.825Z,1015.67
2017-06-23T22:30:37.984Z,1015.7
2017-06-23T22:32:00.133Z,1015.67
2017-06-23T22:33:22.275Z,1015.62
2017-06-23T22:34:44.445Z,1015.65
2017-06-23T22:36:06.211Z,1015.63
2017-06-23T22:37:28.485Z,1015.64
2017-06-23T22:38:50.614Z,1015.61
2017-06-23T22:40:13.196Z,1015.58
2017-06-23T22:41:35.287Z,1015.61
2017-06-23T22:42:57.733Z,1015.58
2017-06-23T22:44:20.244Z,1015.54
2017-06-23T22:45:42.121Z,1015.58
2017-06-23T22:47:04.053Z,1015.53
2017-06-23T22:48:26.183Z,1015.52
2017-06-23T22:49:48.720Z,1015.54
2017-06-23T22:51:10.555Z,1015.56
2017-06-23T22:52:32.711Z,1015.57
2017-06-23T22:53:54.852Z,1015.52
2017-06-23T22:55:17.305Z,1015.57
2017-06-23T22:56:39.149Z,1015.53
2017-06-23T22:58:01.594Z,1015.54
2017-06-23T22:59:23.092Z,1015.51
2017-06-23T23:00:44.903Z,1015.48
2017-06-23T23:02:06.812Z,1015.46
2017-06-23T23:03:28.624Z,1015.48
2017-06-23T23:04:50.793Z,1015.43
2017-06-23T23:06:13.386Z,1015.42
2017-06-23T23:07:35.532Z,1015.38
2017-06-23T23:08:57.373Z,1015.4
2017-06-23T23:10:19.213Z,1015.38
2017-06-23T23:11:41.333Z,1015.41
2017-06-23T23:13:03.617Z,1015.45
2017-06-23T23:14:25.841Z,1015.43
2017-06-23T23:15:48.302Z,1015.46
2017-06-23T23:17:10.433Z,1015.45
2017-06-23T23:18:32.234Z,1015.46
2017-06-23T23:19:55.034Z,1015.46
2017-06-23T23:21:17.179Z,1015.49
2017-06-23T23:22:39.033Z,1015.5
2017-06-23T23:24:00.833Z,1015.5
2017-06-23T23:25:22.959Z,1015.46
2017-06-23T23:26:44.813Z,1015.43
2017-06-23T23:28:06.933Z,1015.48
2017-06-23T23:29:29.053Z,1015.44
2017-06-23T23:30:51.515Z,1015.45
2017-06-23T23:32:13.644Z,1015.48
2017-06-23T23:33:36.134Z,1015.46
2017-06-23T23:34:58.272Z,1015.42
2017-06-23T23:36:20.494Z,1015.41
2017-06-23T23:37:42.633Z,1015.34
2017-06-23T23:39:04.530Z,1015.36
2017-06-23T23:40:26.373Z,1015.36
2017-06-23T23:41:48.792Z,1015.31
2017-06-23T23:43:11.243Z,1015.29
2017-06-23T23:44:33.450Z,1015.2
2017-06-23T23:45:55.001Z,1015.21
2017-06-23T23:47:16.823Z,1015.25
2017-06-23T23:48:38.952Z,1015.2
2017-06-23T23:50:00.909Z,1015.19
2017-06-23T23:51:23.034Z,1015.17
2017-06-23T23:52:46.005Z,1015.17
2017-06-23T23:54:07.800Z,1015.14
2017-06-23T23:55:28.981Z,1015.19
2017-06-23T23:56:50.883Z,1015.16
2017-06-23T23:58:13.742Z,1015.13
2017-06-23T23:59:36.215Z,1015.11
